createdAt,value
2017-05-25T00:01:53.790Z,3.16
2017-05-25T00:04:23.615Z,3.56
2017-05-25T00:06:53.459Z,3.66
2017-05-25T00:09:23.286Z,3.52
2017-05-25T00:11:52.614Z,3.26
2017-05-25T00:14:22.443Z,3.74
2017-05-25T00:16:52.270Z,3.42
2017-05-25T00:19:22.136Z,3.88
2017-05-25T00:21:51.959Z,4.28
2017-05-25T00:24:21.844Z,3.92
2017-05-25T00:26:51.703Z,3.90
2017-05-25T00:29:21.582Z,4.32
2017-05-25T00:31:51.401Z,4.40
2017-05-25T00:34:21.449Z,3.18
2017-05-25T00:36:51.267Z,4.32
2017-05-25T00:39:21.105Z,4.32
2017-05-25T00:41:50.955Z,4.48
2017-05-25T00:44:20.784Z,4.26
2017-05-25T00:46:50.653Z,3.98
2017-05-25T00:49:20.471Z,3.94
2017-05-25T00:51:50.299Z,4.02
2017-05-25T00:54:20.150Z,5.08
2017-05-25T00:56:49.970Z,4.40
2017-05-25T00:59:19.842Z,5.18
2017-05-25T01:01:49.702Z,4.78
2017-05-25T01:04:19.538Z,5.24
2017-05-25T01:06:49.399Z,5.16
2017-05-25T01:09:19.211Z,5.12
2017-05-25T01:11:49.160Z,4.60
2017-05-25T01:14:18.973Z,4.52
2017-05-25T01:16:48.860Z,5.02
2017-05-25T01:19:18.698Z,4.64
2017-05-25T01:21:48.142Z,5.16
2017-05-25T01:24:18.016Z,4.70
2017-05-25T01:26:47.863Z,4.52
2017-05-25T01:29:17.691Z,4.80
2017-05-25T01:31:47.538Z,5.48
2017-05-25T01:34:17.370Z,4.92
2017-05-25T01:36:47.267Z,4.80
2017-05-25T01:39:17.090Z,5.26
2017-05-25T01:41:46.539Z,4.92
2017-05-25T01:44:16.016Z,5.36
2017-05-25T01:46:45.457Z,4.82
2017-05-25T01:49:15.312Z,5.46
2017-05-25T01:51:45.222Z,5.68
2017-05-25T01:54:15.066Z,5.78
2017-05-25T01:56:44.911Z,5.50
2017-05-25T01:59:14.733Z,5.86
2017-05-25T02:01:44.613Z,4.72
2017-05-25T02:04:14.451Z,5.12
2017-05-25T02:06:44.283Z,6.32
2017-05-25T02:09:14.126Z,5.50
2017-05-25T02:11:43.947Z,6.24
2017-05-25T02:14:13.814Z,5.80
2017-05-25T02:16:43.641Z,5.90
2017-05-25T02:19:13.461Z,6.06
2017-05-25T02:21:43.323Z,6.82
2017-05-25T02:24:13.149Z,5.64
2017-05-25T02:26:43.012Z,6.22
2017-05-25T02:29:12.835Z,5.70
2017-05-25T02:31:42.662Z,6.58
2017-05-25T02:34:12.561Z,7.26
2017-05-25T02:36:42.391Z,6.10
2017-05-25T02:39:12.279Z,5.98
2017-05-25T02:41:42.107Z,5.40
2017-05-25T02:44:11.938Z,6.00
2017-05-25T02:46:41.789Z,6.28
2017-05-25T02:49:11.751Z,5.24
2017-05-25T02:51:41.620Z,6.50
2017-05-25T02:54:11.443Z,6.26
2017-05-25T02:56:41.263Z,6.38
2017-05-25T02:59:11.107Z,5.82
2017-05-25T03:01:40.927Z,5.88
2017-05-25T03:04:10.777Z,6.70
2017-05-25T03:06:40.610Z,6.64
2017-05-25T03:09:10.436Z,5.80
2017-05-25T03:11:40.290Z,5.72
2017-05-25T03:14:10.113Z,6.14
2017-05-25T03:16:40.002Z,6.42
2017-05-25T03:19:09.827Z,6.52
2017-05-25T03:21:39.656Z,7.20
2017-05-25T03:24:09.522Z,6.02
2017-05-25T03:26:39.347Z,6.00
2017-05-25T03:29:09.215Z,6.38
2017-05-25T03:31:39.058Z,5.64
2017-05-25T03:34:08.888Z,6.36
2017-05-25T03:36:38.733Z,6.52
2017-05-25T03:39:08.584Z,5.98
2017-05-25T03:41:38.439Z,6.00
2017-05-25T03:44:08.269Z,6.20
2017-05-25T03:46:38.087Z,6.06
2017-05-25T03:49:07.931Z,6.60
2017-05-25T03:51:37.755Z,6.20
2017-05-25T03:54:07.633Z,5.84
2017-05-25T03:56:37.470Z,6.02
2017-05-25T03:59:07.294Z,5.26
2017-05-25T04:01:37.153Z,6.68
2017-05-25T04:04:06.983Z,5.68
2017-05-25T04:06:36.849Z,5.48
2017-05-25T04:09:06.671Z,5.54
2017-05-25T04:11:36.545Z,5.86
2017-05-25T04:14:06.403Z,6.08
2017-05-25T04:16:36.431Z,5.54
2017-05-25T04:19:06.306Z,5.44
2017-05-25T04:21:36.137Z,6.30
2017-05-25T04:24:05.983Z,5.56
2017-05-25T04:26:35.842Z,6.68
2017-05-25T04:29:05.667Z,6.38
2017-05-25T04:31:35.539Z,6.54
2017-05-25T04:34:05.358Z,5.86
2017-05-25T04:36:35.191Z,6.04
2017-05-25T04:39:04.131Z,5.80
2017-05-25T04:41:33.946Z,6.40
2017-05-25T04:44:03.850Z,6.16
2017-05-25T04:46:33.785Z,7.12
2017-05-25T04:49:03.611Z,6.38
2017-05-25T04:51:33.459Z,6.84
2017-05-25T04:54:03.279Z,6.28
2017-05-25T04:56:33.158Z,7.08
2017-05-25T04:59:03.245Z,6.40
2017-05-25T05:01:33.118Z,6.88
2017-05-25T05:04:02.928Z,6.14
2017-05-25T05:06:32.823Z,7.90
2017-05-25T05:09:02.648Z,7.10
2017-05-25T05:11:32.469Z,7.30
2017-05-25T05:14:02.354Z,7.50
2017-05-25T05:16:32.184Z,7.50
2017-05-25T05:19:02.078Z,8.08
2017-05-25T05:21:31.931Z,7.08
2017-05-25T05:24:01.770Z,7.34
2017-05-25T05:26:31.623Z,7.12
2017-05-25T05:29:01.523Z,7.58
2017-05-25T05:31:31.410Z,6.32
2017-05-25T05:34:01.238Z,7.96
2017-05-25T05:36:31.063Z,6.94
2017-05-25T05:39:01.024Z,7.48
2017-05-25T05:41:30.842Z,7.28
2017-05-25T05:44:00.707Z,6.90
2017-05-25T05:46:30.527Z,7.06
2017-05-25T05:49:00.495Z,7.14
2017-05-25T05:51:30.330Z,6.96
2017-05-25T05:54:00.197Z,7.40
2017-05-25T05:56:30.049Z,7.00
2017-05-25T05:58:59.895Z,7.50
2017-05-25T06:01:29.778Z,7.74
2017-05-25T06:03:59.705Z,7.30
2017-05-25T06:06:29.537Z,6.84
2017-05-25T06:08:59.415Z,7.62
2017-05-25T06:11:29.260Z,8.00
2017-05-25T06:13:59.144Z,8.14
2017-05-25T06:16:29.030Z,7.74
2017-05-25T06:18:58.861Z,7.78
2017-05-25T06:21:28.729Z,8.40
2017-05-25T06:23:58.559Z,7.78
2017-05-25T06:26:28.433Z,7.40
2017-05-25T06:28:58.250Z,7.62
2017-05-25T06:31:28.095Z,6.72
2017-05-25T06:33:57.949Z,8.28
2017-05-25T06:36:27.841Z,7.08
2017-05-25T06:38:57.727Z,7.82
2017-05-25T06:41:27.354Z,7.78
2017-05-25T06:43:57.270Z,7.84
2017-05-25T06:46:27.127Z,7.52
2017-05-25T06:48:56.939Z,7.18
2017-05-25T06:51:26.811Z,7.82
2017-05-25T06:53:56.643Z,6.74
2017-05-25T06:56:26.524Z,6.88
2017-05-25T06:58:56.343Z,7.30
2017-05-25T07:01:26.175Z,6.50
2017-05-25T07:03:56.025Z,5.56
2017-05-25T07:06:25.855Z,5.98
2017-05-25T07:08:55.732Z,4.96
2017-05-25T07:11:25.554Z,5.88
2017-05-25T07:13:55.428Z,5.00
2017-05-25T07:16:25.242Z,4.44
2017-05-25T07:18:55.094Z,4.86
2017-05-25T07:21:25.003Z,5.52
2017-05-25T07:23:54.844Z,5.20
2017-05-25T07:26:24.713Z,5.06
2017-05-25T07:28:54.530Z,5.28
2017-05-25T07:31:24.386Z,4.72
2017-05-25T07:33:54.235Z,4.04
2017-05-25T07:36:24.059Z,4.92
2017-05-25T07:38:53.936Z,4.28
2017-05-25T07:41:23.757Z,4.08
2017-05-25T07:43:53.581Z,3.44
2017-05-25T07:46:23.427Z,4.20
2017-05-25T07:48:53.238Z,3.96
2017-05-25T07:51:23.126Z,5.04
2017-05-25T07:53:53.046Z,4.24
2017-05-25T07:56:22.875Z,4.52
2017-05-25T07:58:52.731Z,3.92
2017-05-25T08:01:22.560Z,5.10
2017-05-25T08:03:52.446Z,5.16
2017-05-25T08:06:22.261Z,3.76
2017-05-25T08:08:52.078Z,3.72
2017-05-25T08:11:21.938Z,3.82
2017-05-25T08:13:51.760Z,3.00
2017-05-25T08:18:58.256Z,2.66
2017-05-25T08:21:28.082Z,2.40
2017-05-25T08:23:57.957Z,2.32
2017-05-25T08:26:27.763Z,2.18
2017-05-25T08:28:57.583Z,3.54
2017-05-25T08:31:27.428Z,2.56
2017-05-25T08:33:57.242Z,2.96
2017-05-25T08:36:27.119Z,2.18
2017-05-25T08:38:56.929Z,2.48
2017-05-25T08:41:26.741Z,2.22
2017-05-25T08:43:56.589Z,1.80
2017-05-25T08:46:26.411Z,2.42
2017-05-25T08:48:56.285Z,2.64
2017-05-25T08:51:26.124Z,1.90
2017-05-25T08:53:55.938Z,2.68
2017-05-25T08:56:25.793Z,2.90
2017-05-25T08:58:55.614Z,2.86
2017-05-25T09:01:25.482Z,2.20
2017-05-25T09:03:55.304Z,1.80
2017-05-25T09:06:25.115Z,2.06
2017-05-25T09:08:54.955Z,1.62
2017-05-25T09:11:24.766Z,2.60
2017-05-25T09:13:54.702Z,2.82
2017-05-25T09:16:24.548Z,4.10
2017-05-25T09:18:54.974Z,4.56
2017-05-25T09:21:24.827Z,4.36
2017-05-25T09:23:54.642Z,4.28
2017-05-25T09:26:24.508Z,4.06
2017-05-25T09:28:54.326Z,3.70
2017-05-25T09:31:24.147Z,3.10
2017-05-25T09:33:53.989Z,2.82
2017-05-25T09:36:23.809Z,2.54
2017-05-25T09:38:53.690Z,3.00
2017-05-25T09:41:23.512Z,3.14
2017-05-25T09:43:53.331Z,3.42
2017-05-25T09:46:23.215Z,3.42
2017-05-25T09:48:53.040Z,3.76
2017-05-25T09:51:22.903Z,4.92
2017-05-25T09:53:52.720Z,4.78
2017-05-25T09:56:22.547Z,5.68
2017-05-25T09:58:52.396Z,5.70
2017-05-25T10:01:22.229Z,7.26
2017-05-25T10:03:52.073Z,6.30
2017-05-25T10:06:21.887Z,6.30
2017-05-25T10:08:51.704Z,5.90
2017-05-25T10:11:21.533Z,5.42
2017-05-25T10:13:51.392Z,5.92
2017-05-25T10:16:21.263Z,6.30
2017-05-25T10:18:51.075Z,6.60
2017-05-25T10:21:20.890Z,5.26
2017-05-25T10:23:50.735Z,5.46
2017-05-25T10:26:20.554Z,5.78
2017-05-25T10:28:50.410Z,5.14
2017-05-25T10:31:20.221Z,5.42
2017-05-25T10:33:50.081Z,5.38
2017-05-25T10:36:19.893Z,5.06
2017-05-25T10:38:49.711Z,4.82
2017-05-25T10:41:19.565Z,7.38
2017-05-25T10:43:49.388Z,6.16
2017-05-25T10:46:19.251Z,7.14
2017-05-25T10:48:49.058Z,7.30
2017-05-25T10:51:18.870Z,9.02
2017-05-25T10:53:48.706Z,7.40
2017-05-25T10:56:18.538Z,7.30
2017-05-25T10:58:48.444Z,6.56
2017-05-25T11:01:18.222Z,6.76
2017-05-25T11:03:48.095Z,6.66
2017-05-25T11:06:17.718Z,5.96
2017-05-25T11:08:47.546Z,5.58
2017-05-25T11:11:17.378Z,8.40
2017-05-25T11:13:47.192Z,6.62
2017-05-25T11:16:17.071Z,6.80
2017-05-25T11:18:46.891Z,6.22
2017-05-25T11:21:16.723Z,6.46
2017-05-25T11:23:46.575Z,6.92
2017-05-25T11:26:16.386Z,6.94
2017-05-25T11:28:46.261Z,7.32
2017-05-25T11:31:16.079Z,6.78
2017-05-25T11:33:45.899Z,8.20
2017-05-25T11:36:15.743Z,8.04
2017-05-25T11:38:45.558Z,8.68
2017-05-25T11:41:15.435Z,8.80
2017-05-25T11:43:45.254Z,8.10
2017-05-25T11:46:15.075Z,10.54
2017-05-25T11:48:44.931Z,9.64
2017-05-25T11:51:14.745Z,9.20
2017-05-25T11:53:44.606Z,8.68
2017-05-25T11:56:14.434Z,10.96
2017-05-25T11:58:44.250Z,9.00
2017-05-25T12:01:14.098Z,10.76
2017-05-25T12:03:43.931Z,10.32
2017-05-25T12:06:13.814Z,9.16
2017-05-25T12:08:43.634Z,7.28
2017-05-25T12:11:13.462Z,10.18
2017-05-25T12:13:43.376Z,9.68
2017-05-25T12:16:13.202Z,9.40
2017-05-25T12:18:43.083Z,9.90
2017-05-25T12:21:12.906Z,9.68
2017-05-25T12:23:42.727Z,10.10
2017-05-25T12:26:12.571Z,9.50
2017-05-25T12:28:42.478Z,9.70
2017-05-25T12:31:12.362Z,10.10
2017-05-25T12:33:42.184Z,9.08
2017-05-25T12:36:12.017Z,10.24
2017-05-25T12:38:41.869Z,9.16
2017-05-25T12:41:11.699Z,9.12
2017-05-25T12:43:41.578Z,10.00
2017-05-25T12:46:11.403Z,10.48
2017-05-25T12:48:41.235Z,10.36
2017-05-25T12:51:11.085Z,11.06
2017-05-25T12:53:40.915Z,11.18
2017-05-25T12:56:10.789Z,10.90
2017-05-25T12:58:40.622Z,10.34
2017-05-25T13:01:10.459Z,10.64
2017-05-25T13:03:41.018Z,9.98
2017-05-25T13:06:10.851Z,9.46
2017-05-25T13:08:40.722Z,9.90
2017-05-25T13:11:10.538Z,11.16
2017-05-25T13:13:40.423Z,12.38
2017-05-25T13:16:10.246Z,11.92
2017-05-25T13:18:40.079Z,12.18
2017-05-25T13:21:09.925Z,11.94
2017-05-25T13:23:39.770Z,12.18
2017-05-25T13:26:09.266Z,12.52
2017-05-25T13:28:39.086Z,11.60
2017-05-25T13:31:08.942Z,11.78
2017-05-25T13:33:38.807Z,10.86
2017-05-25T13:36:08.630Z,11.36
2017-05-25T13:38:38.491Z,11.14
2017-05-25T13:41:08.343Z,11.38
2017-05-25T13:43:38.203Z,11.62
2017-05-25T13:46:08.038Z,10.34
2017-05-25T13:48:37.873Z,9.98
2017-05-25T13:51:07.729Z,11.08
2017-05-25T13:53:37.565Z,9.94
2017-05-25T13:56:07.431Z,11.22
2017-05-25T13:58:37.267Z,11.54
2017-05-25T14:01:07.094Z,11.02
2017-05-25T14:03:36.950Z,10.22
2017-05-25T14:06:06.810Z,9.40
2017-05-25T14:08:36.674Z,9.86
2017-05-25T14:11:06.498Z,10.18
2017-05-25T14:13:36.339Z,11.24
2017-05-25T14:16:06.282Z,11.16
2017-05-25T14:18:36.108Z,10.12
2017-05-25T14:21:05.981Z,10.54
2017-05-25T14:23:35.805Z,11.70
2017-05-25T14:26:05.634Z,11.34
2017-05-25T14:28:35.491Z,12.50
2017-05-25T14:31:05.327Z,12.40
2017-05-25T14:33:35.234Z,12.36
2017-05-25T14:36:05.067Z,12.62
2017-05-25T14:38:34.988Z,12.68
2017-05-25T14:41:04.855Z,13.28
2017-05-25T14:43:34.688Z,11.92
2017-05-25T14:46:04.542Z,10.62
2017-05-25T14:48:34.369Z,10.26
2017-05-25T14:51:04.199Z,11.18
2017-05-25T14:53:34.047Z,11.50
2017-05-25T14:56:03.867Z,10.40
2017-05-25T14:58:33.724Z,9.22
2017-05-25T15:01:03.546Z,10.48
2017-05-25T15:03:33.389Z,8.66
2017-05-25T15:06:03.201Z,8.40
2017-05-25T15:08:33.024Z,7.40
2017-05-25T15:11:02.892Z,5.98
2017-05-25T15:13:32.705Z,6.64
2017-05-25T15:16:02.545Z,6.76
2017-05-25T15:18:32.358Z,5.32
2017-05-25T15:21:02.180Z,6.96
2017-05-25T15:23:32.048Z,6.52
2017-05-25T15:26:01.878Z,6.10
2017-05-25T15:28:31.736Z,6.42
2017-05-25T15:31:01.587Z,6.38
2017-05-25T15:33:31.397Z,6.04
2017-05-25T15:36:01.315Z,5.98
2017-05-25T15:38:31.146Z,5.90
2017-05-25T15:41:01.106Z,6.44
2017-05-25T15:43:30.915Z,5.90
2017-05-25T15:46:00.847Z,6.52
2017-05-25T15:48:30.687Z,5.12
2017-05-25T15:51:00.506Z,5.76
2017-05-25T15:53:30.387Z,4.98
2017-05-25T15:56:00.224Z,4.14
2017-05-25T15:58:30.095Z,4.48
2017-05-25T16:00:59.963Z,4.36
2017-05-25T16:03:29.798Z,3.80
2017-05-25T16:05:59.648Z,3.56
2017-05-25T16:08:29.471Z,3.62
2017-05-25T16:10:59.281Z,3.74
2017-05-25T16:13:29.113Z,3.40
2017-05-25T16:15:58.926Z,3.56
2017-05-25T16:18:28.789Z,3.52
2017-05-25T16:20:58.607Z,3.16
2017-05-25T16:23:28.463Z,3.50
2017-05-25T16:25:58.274Z,3.28
2017-05-25T16:28:28.096Z,2.94
2017-05-25T16:30:57.937Z,2.58
2017-05-25T16:33:27.756Z,3.16
2017-05-25T16:35:57.630Z,3.14
2017-05-25T16:38:27.462Z,3.14
2017-05-25T16:40:57.273Z,3.12
2017-05-25T16:43:27.128Z,3.54
2017-05-25T16:45:56.566Z,3.28
2017-05-25T16:48:26.399Z,3.86
2017-05-25T16:50:56.209Z,3.30
2017-05-25T16:53:26.062Z,3.84
2017-05-25T16:55:55.880Z,3.38
2017-05-25T16:58:25.699Z,3.50
2017-05-25T17:00:55.539Z,4.02
2017-05-25T17:03:25.359Z,3.66
2017-05-25T17:05:55.222Z,4.26
2017-05-25T17:08:25.040Z,3.54
2017-05-25T17:10:54.882Z,2.96
2017-05-25T17:13:24.717Z,3.10
2017-05-25T17:15:54.547Z,3.20
2017-05-25T17:18:24.390Z,3.60
2017-05-25T17:20:54.203Z,3.38
2017-05-25T17:23:24.052Z,2.90
2017-05-25T17:25:53.883Z,3.72
2017-05-25T17:28:23.703Z,3.32
2017-05-25T17:30:53.547Z,3.54
2017-05-25T17:33:23.366Z,3.42
2017-05-25T17:35:53.266Z,3.36
2017-05-25T17:38:23.091Z,4.06
2017-05-25T17:40:52.941Z,3.92
2017-05-25T17:43:22.792Z,3.88
2017-05-25T17:45:52.613Z,3.08
2017-05-25T17:48:22.483Z,3.66
2017-05-25T17:50:52.302Z,3.82
2017-05-25T17:53:22.118Z,3.96
2017-05-25T17:55:51.962Z,4.30
2017-05-25T17:58:21.774Z,4.58
2017-05-25T18:00:51.626Z,4.30
2017-05-25T18:03:21.455Z,4.10
2017-05-25T18:05:51.318Z,3.88
2017-05-25T18:08:21.139Z,3.62
2017-05-25T18:10:50.999Z,4.34
2017-05-25T18:13:20.842Z,4.34
2017-05-25T18:15:50.677Z,3.44
2017-05-25T18:18:20.528Z,4.14
2017-05-25T18:20:50.342Z,4.16
2017-05-25T18:23:20.159Z,4.08
2017-05-25T18:25:50.005Z,4.28
2017-05-25T18:28:19.838Z,4.10
2017-05-25T18:30:49.686Z,4.30
2017-05-25T18:33:19.506Z,4.06
2017-05-25T18:35:49.314Z,4.00
2017-05-25T18:38:19.151Z,4.00
2017-05-25T18:40:48.974Z,4.12
2017-05-25T18:43:18.629Z,4.18
2017-05-25T18:45:48.459Z,3.58
2017-05-25T18:48:18.282Z,4.24
2017-05-25T18:50:48.135Z,3.78
2017-05-25T18:53:17.946Z,4.48
2017-05-25T18:55:47.806Z,4.16
2017-05-25T18:58:17.618Z,4.12
2017-05-25T19:00:47.435Z,3.74
2017-05-25T19:03:17.278Z,4.44
2017-05-25T19:05:47.099Z,3.62
2017-05-25T19:08:16.961Z,4.48
2017-05-25T19:10:46.774Z,4.38
2017-05-25T19:13:16.614Z,3.76
2017-05-25T19:15:46.435Z,4.08
2017-05-25T19:18:16.256Z,4.26
2017-05-25T19:20:46.100Z,4.88
2017-05-25T19:23:15.915Z,3.90
2017-05-25T19:25:45.778Z,4.52
2017-05-25T19:28:15.596Z,4.32
2017-05-25T19:30:45.409Z,3.58
2017-05-25T19:33:15.247Z,4.30
2017-05-25T19:35:45.062Z,4.42
2017-05-25T19:38:14.923Z,4.20
2017-05-25T19:40:44.738Z,4.14
2017-05-25T19:43:14.602Z,4.18
2017-05-25T19:45:44.444Z,3.92
2017-05-25T19:48:14.303Z,4.44
2017-05-25T19:50:44.132Z,4.62
2017-05-25T19:53:13.957Z,4.56
2017-05-25T19:55:43.802Z,4.42
2017-05-25T19:58:13.617Z,4.46
2017-05-25T20:00:43.482Z,3.94
2017-05-25T20:03:13.307Z,5.16
2017-05-25T20:05:43.122Z,4.50
2017-05-25T20:08:12.973Z,4.80
2017-05-25T20:10:42.798Z,5.22
2017-05-25T20:13:12.651Z,5.52
2017-05-25T20:15:42.473Z,5.02
2017-05-25T20:18:12.343Z,5.72
2017-05-25T20:20:42.170Z,5.82
2017-05-25T20:23:12.004Z,6.46
2017-05-25T20:25:41.847Z,6.56
2017-05-25T20:28:11.667Z,6.54
2017-05-25T20:30:41.514Z,6.04
2017-05-25T20:33:11.331Z,6.70
2017-05-25T20:35:41.167Z,6.28
2017-05-25T20:38:11.009Z,6.88
2017-05-25T20:40:40.822Z,6.76
2017-05-25T20:43:10.756Z,6.56
2017-05-25T20:45:40.567Z,7.30
2017-05-25T20:48:10.379Z,6.82
2017-05-25T20:50:40.222Z,7.50
2017-05-25T20:53:10.052Z,6.72
2017-05-25T20:55:39.914Z,6.76
2017-05-25T20:58:09.735Z,7.48
2017-05-25T21:00:39.563Z,6.90
2017-05-25T21:03:09.409Z,7.08
2017-05-25T21:05:39.218Z,7.56
2017-05-25T21:08:09.064Z,8.46
2017-05-25T21:10:38.885Z,8.42
2017-05-25T21:13:08.703Z,8.90
2017-05-25T21:15:38.538Z,8.06
2017-05-25T21:18:08.351Z,8.40
2017-05-25T21:20:38.207Z,9.02
2017-05-25T21:23:08.027Z,8.64
2017-05-25T21:25:37.903Z,8.58
2017-05-25T21:28:07.743Z,8.98
2017-05-25T21:30:37.553Z,8.44
2017-05-25T21:33:07.407Z,8.60
2017-05-25T21:35:37.222Z,9.10
2017-05-25T21:38:07.066Z,8.52
2017-05-25T21:40:36.904Z,8.88
2017-05-25T21:43:06.733Z,9.50
2017-05-25T21:45:36.593Z,8.32
2017-05-25T21:48:06.410Z,9.36
2017-05-25T21:50:36.242Z,9.00
2017-05-25T21:53:06.088Z,8.46
2017-05-25T21:55:35.909Z,8.66
2017-05-25T21:58:05.770Z,9.04
2017-05-25T22:00:35.586Z,8.94
2017-05-25T22:03:05.400Z,8.82
2017-05-25T22:05:35.244Z,9.78
2017-05-25T22:08:05.063Z,9.18
2017-05-25T22:10:34.919Z,8.62
2017-05-25T22:13:04.739Z,9.56
2017-05-25T22:15:34.563Z,8.20
2017-05-25T22:18:04.419Z,8.90
2017-05-25T22:20:34.249Z,10.02
2017-05-25T22:23:04.106Z,9.34
2017-05-25T22:25:33.937Z,10.00
2017-05-25T22:28:03.782Z,9.76
2017-05-25T22:30:33.667Z,10.84
2017-05-25T22:33:03.494Z,10.48
2017-05-25T22:35:33.349Z,9.02
2017-05-25T22:38:03.171Z,10.00
2017-05-25T22:40:32.998Z,9.76
2017-05-25T22:43:02.873Z,10.68
2017-05-25T22:45:32.693Z,10.58
2017-05-25T22:48:02.559Z,10.34
2017-05-25T22:50:32.380Z,11.08
2017-05-25T22:53:02.218Z,10.10
2017-05-25T22:55:32.088Z,10.12
2017-05-25T22:58:01.938Z,10.52
2017-05-25T23:00:31.793Z,9.88
2017-05-25T23:03:01.686Z,9.94
2017-05-25T23:05:31.522Z,10.18
2017-05-25T23:08:01.467Z,10.34
2017-05-25T23:10:31.327Z,9.88
2017-05-25T23:13:01.338Z,9.38
2017-05-25T23:15:31.154Z,10.08
2017-05-25T23:18:00.998Z,10.44
2017-05-25T23:20:30.894Z,9.76
2017-05-25T23:23:00.799Z,10.78
2017-05-25T23:25:30.647Z,9.00
2017-05-25T23:28:00.469Z,9.54
2017-05-25T23:30:30.298Z,10.44
2017-05-25T23:33:00.154Z,9.76
2017-05-25T23:35:29.998Z,10.70
2017-05-25T23:37:59.877Z,9.44
2017-05-25T23:40:29.699Z,9.72
2017-05-25T23:42:59.513Z,8.70
2017-05-25T23:45:29.441Z,9.26
2017-05-25T23:47:59.287Z,9.98
2017-05-25T23:50:29.141Z,9.50
2017-05-25T23:52:58.965Z,9.76
2017-05-25T23:55:28.802Z,9.28
2017-05-25T23:57:58.653Z,9.16
